Time;durP1;ratioP1;P1;durP2;ratioP2;P2;SDS_P1;SDS_P2;PMS_P1;PMS_P2;Temp;Humidity;BMP_temperature;BMP_pressure;BME280_temperature;BME280_humidity;BME280_pressure;Samples;Min_cycle;Max_cycle;Signal;HPM_P1;HPM_P2
2022/08/21 00:00:34;;;;;;;61.15;50.22;;;25.40;58.90;;;;;;4929327;28;88849;-51
2022/08/21 00:03:03;;;;;;;60.92;49.97;;;25.40;58.90;;;;;;4935841;28;86286;-53
2022/08/21 00:05:30;;;;;;;61.13;50.13;;;25.40;58.90;;;;;;4932735;28;86360;-52
2022/08/21 00:07:56;;;;;;;60.72;50.15;;;25.40;59.50;;;;;;4928096;28;85455;-52
2022/08/21 00:10:23;;;;;;;60.83;50.33;;;25.40;59.00;;;;;;4933779;28;85351;-53
2022/08/21 00:12:49;;;;;;;60.70;50.10;;;25.40;59.00;;;;;;4926709;28;87313;-52
2022/08/21 00:15:19;;;;;;;60.70;50.10;;;25.30;58.90;;;;;;4936005;28;85173;-53
2022/08/21 00:17:44;;;;;;;60.83;50.20;;;25.30;58.90;;;;;;4941197;28;93098;-51
2022/08/21 00:20:12;;;;;;;60.47;50.13;;;25.30;59.00;;;;;;4933980;28;85885;-55
2022/08/21 00:22:38;;;;;;;60.72;50.05;;;25.40;59.10;;;;;;4933853;28;86358;-53
2022/08/21 00:25:06;;;;;;;61.30;49.92;;;25.30;59.00;;;;;;4935299;28;86069;-52
2022/08/21 00:27:32;;;;;;;60.38;50.13;;;25.30;59.00;;;;;;4928585;28;88627;-53
2022/08/21 00:29:58;;;;;;;60.55;50.13;;;25.30;59.10;;;;;;4930266;28;87366;-49
2022/08/21 00:32:26;;;;;;;60.28;49.90;;;25.30;59.10;;;;;;4929819;28;87834;-51
2022/08/21 00:34:53;;;;;;;60.05;49.75;;;25.20;59.10;;;;;;4931993;28;87163;-54
2022/08/21 00:37:19;;;;;;;60.20;49.90;;;25.20;59.10;;;;;;4936137;28;88700;-51
2022/08/21 00:39:46;;;;;;;60.28;49.95;;;25.20;59.10;;;;;;4935097;28;89746;-52
2022/08/21 00:42:14;;;;;;;60.17;49.88;;;25.20;59.20;;;;;;4936752;28;92513;-52
2022/08/21 00:44:42;;;;;;;60.67;50.15;;;25.20;59.20;;;;;;4932776;28;85618;-52
2022/08/21 00:47:08;;;;;;;60.72;49.95;;;25.20;59.20;;;;;;4931808;28;88678;-53
2022/08/21 00:49:34;;;;;;;61.25;50.05;;;25.20;59.30;;;;;;4929701;28;85166;-55
2022/08/21 00:52:01;;;;;;;60.60;50.08;;;25.20;59.30;;;;;;4933334;28;85573;-53
2022/08/21 00:54:29;;;;;;;60.38;50.00;;;25.20;59.30;;;;;;4928280;28;90026;-53
2022/08/21 00:57:08;;;;;;;61.15;49.85;;;25.20;59.30;;;;;;4936731;28;85709;-53
2022/08/21 00:59:38;;;;;;;60.30;49.92;;;25.20;59.30;;;;;;4935057;28;85145;-52
2022/08/21 01:02:07;;;;;;;60.75;50.03;;;25.10;59.30;;;;;;4930779;28;85465;-52
2022/08/21 01:04:33;;;;;;;60.10;49.85;;;25.10;59.40;;;;;;4926873;28;86437;-53
2022/08/21 01:06:59;;;;;;;60.58;50.08;;;25.10;59.40;;;;;;4933566;28;86728;-52
2022/08/21 01:09:24;;;;;;;61.08;50.05;;;25.10;59.40;;;;;;4928602;28;85520;-53
2022/08/21 01:11:50;;;;;;;60.22;50.13;;;25.10;59.40;;;;;;4933423;28;85653;-53
2022/08/21 01:14:18;;;;;;;60.53;50.25;;;25.10;59.50;;;;;;4934210;28;85590;-52
2022/08/21 01:16:47;;;;;;;60.22;49.85;;;25.10;59.50;;;;;;4931804;28;86221;-50
2022/08/21 01:19:14;;;;;;;60.60;50.10;;;25.00;59.50;;;;;;4937979;28;85722;-53
2022/08/21 01:21:40;;;;;;;60.33;50.03;;;25.00;59.50;;;;;;4927244;28;85778;-52
2022/08/21 01:24:06;;;;;;;60.83;50.08;;;25.00;59.60;;;;;;4935802;28;86323;-53
2022/08/21 01:26:35;;;;;;;59.90;49.75;;;25.00;59.60;;;;;;4933330;28;85616;-54
2022/08/21 01:29:48;;;;;;;60.60;49.90;;;25.00;59.60;;;;;;4915085;28;86475;-53
2022/08/21 01:32:17;;;;;;;60.85;50.10;;;25.00;59.70;;;;;;4910879;28;90106;-52
2022/08/21 01:34:47;;;;;;;61.20;50.03;;;25.00;59.60;;;;;;4914213;28;86287;-53
2022/08/21 01:37:13;;;;;;;60.08;49.72;;;24.90;59.50;;;;;;4922978;28;87767;-53
2022/08/21 01:39:40;;;;;;;60.00;49.90;;;24.90;59.50;;;;;;4925904;28;86842;-48
2022/08/21 01:42:06;;;;;;;59.83;49.85;;;24.90;59.60;;;;;;4927427;28;91097;-54
2022/08/21 01:44:32;;;;;;;61.50;49.85;;;24.90;59.70;;;;;;4915355;28;86552;-53
2022/08/21 01:47:00;;;;;;;60.25;50.15;;;24.90;59.70;;;;;;4933756;28;85700;-50
2022/08/21 01:49:27;;;;;;;60.90;49.88;;;24.90;59.70;;;;;;4927399;28;86004;-54
2022/08/21 01:51:53;;;;;;;60.13;49.83;;;24.90;59.80;;;;;;4929852;28;86086;-50
2022/08/21 01:54:19;;;;;;;59.92;49.85;;;24.90;59.70;;;;;;4926643;28;85566;-53
2022/08/21 01:56:49;;;;;;;60.10;49.95;;;24.90;59.80;;;;;;4935117;28;85780;-55
2022/08/21 01:59:15;;;;;;;60.55;50.00;;;24.90;59.70;;;;;;4918520;28;87455;-53
2022/08/21 02:01:41;;;;;;;60.95;49.95;;;24.90;59.70;;;;;;4919419;28;86098;-54
2022/08/21 02:04:09;;;;;;;60.15;49.90;;;24.90;59.80;;;;;;4926684;28;86106;-53
2022/08/21 02:06:35;;;;;;;60.40;49.80;;;24.90;59.80;;;;;;4924046;28;89100;-49
2022/08/21 02:09:05;;;;;;;60.55;49.95;;;24.90;59.80;;;;;;4934517;28;85629;-50
2022/08/21 02:11:32;;;;;;;59.77;49.87;;;24.80;59.80;;;;;;4930750;28;89193;-54
2022/08/21 02:13:57;;;;;;;59.97;49.83;;;24.80;59.80;;;;;;4940986;28;85069;-55
2022/08/21 02:16:23;;;;;;;59.75;49.83;;;24.80;59.90;;;;;;4932752;28;87454;-54
2022/08/21 02:18:49;;;;;;;60.35;50.00;;;24.80;59.90;;;;;;4937736;28;85438;-51
2022/08/21 02:21:14;;;;;;;60.55;50.03;;;24.70;60.50;;;;;;4931382;28;88474;-51
2022/08/21 02:23:40;;;;;;;59.67;49.83;;;24.80;60.00;;;;;;4933918;28;86038;-53
2022/08/21 02:26:08;;;;;;;59.78;49.63;;;24.70;59.90;;;;;;4931327;28;85136;-51
2022/08/21 02:28:34;;;;;;;60.22;49.85;;;24.70;59.90;;;;;;4927896;28;87938;-55
2022/08/21 02:31:00;;;;;;;60.38;49.75;;;24.70;59.90;;;;;;4928919;28;86877;-55
2022/08/21 02:33:27;;;;;;;59.72;49.75;;;24.70;59.90;;;;;;4938074;28;84962;-54
2022/08/21 02:35:54;;;;;;;59.70;49.75;;;24.70;59.90;;;;;;4930140;28;88155;-53
2022/08/21 02:38:23;;;;;;;59.40;49.70;;;24.70;59.90;;;;;;4934644;28;85996;-54
2022/08/21 02:40:50;;;;;;;60.22;49.80;;;24.70;60.00;;;;;;4928029;28;87539;-55
2022/08/21 02:43:17;;;;;;;60.90;49.95;;;24.70;60.00;;;;;;4934373;28;85063;-54
2022/08/21 02:45:44;;;;;;;59.92;49.88;;;24.70;60.00;;;;;;4931741;28;87537;-51
2022/08/21 02:48:13;;;;;;;60.05;49.92;;;24.60;60.00;;;;;;4936308;28;91727;-52
2022/08/21 02:50:42;;;;;;;59.72;49.88;;;24.70;60.00;;;;;;4929881;28;88196;-51
2022/08/21 02:53:10;;;;;;;60.58;49.78;;;24.60;60.00;;;;;;4934231;28;86102;-53
2022/08/21 02:55:37;;;;;;;59.85;49.83;;;24.70;60.00;;;;;;4937007;28;85055;-51
2022/08/21 02:58:06;;;;;;;61.15;49.80;;;24.60;60.00;;;;;;4933589;28;92485;-54
2022/08/21 03:00:34;;;;;;;59.67;49.65;;;24.60;60.00;;;;;;4937914;28;87962;-52
2022/08/21 03:03:00;;;;;;;60.58;50.05;;;24.60;60.00;;;;;;4925002;28;86524;-53
2022/08/21 03:05:28;;;;;;;59.85;49.75;;;24.60;60.10;;;;;;4929928;28;86520;-55
2022/08/21 03:07:54;;;;;;;59.67;49.83;;;24.60;60.20;;;;;;4920014;28;91802;-51
2022/08/21 03:10:21;;;;;;;59.50;49.75;;;24.50;60.10;;;;;;4936591;28;85268;-53
2022/08/21 03:12:48;;;;;;;59.65;49.72;;;24.60;60.10;;;;;;4935497;28;87219;-53
2022/08/21 03:15:17;;;;;;;59.92;49.63;;;24.60;60.20;;;;;;4914928;28;87685;-55
2022/08/21 03:17:43;;;;;;;60.67;49.95;;;24.50;60.10;;;;;;4918847;28;87290;-52
2022/08/21 03:20:09;;;;;;;60.70;49.85;;;24.50;60.10;;;;;;4922404;28;85854;-52
2022/08/21 03:22:35;;;;;;;59.92;49.75;;;24.50;60.10;;;;;;4934018;28;89477;-50
2022/08/21 03:25:02;;;;;;;59.88;49.47;;;24.50;60.20;;;;;;4925224;28;85680;-51
2022/08/21 03:27:30;;;;;;;60.47;49.80;;;24.50;60.20;;;;;;4932490;28;85729;-50
2022/08/21 03:29:56;;;;;;;59.50;49.85;;;24.50;60.20;;;;;;4931197;28;85756;-54
2022/08/21 03:32:21;;;;;;;60.67;49.78;;;24.50;60.10;;;;;;4932552;28;85851;-51
2022/08/21 03:34:47;;;;;;;59.90;49.72;;;24.50;60.10;;;;;;4934077;28;85844;-49
2022/08/21 03:37:13;;;;;;;60.03;49.78;;;24.40;60.10;;;;;;4919296;28;86294;-51
2022/08/21 03:39:41;;;;;;;60.20;50.03;;;24.50;60.20;;;;;;4929669;28;85739;-52
2022/08/21 03:42:07;;;;;;;60.13;49.90;;;24.50;60.20;;;;;;4927884;28;86717;-51
2022/08/21 03:44:34;;;;;;;59.67;49.75;;;24.40;60.10;;;;;;4931185;28;85959;-55
2022/08/21 03:47:00;;;;;;;59.45;49.60;;;24.40;60.10;;;;;;4928119;28;85671;-50
2022/08/21 03:49:26;;;;;;;60.85;49.83;;;24.40;60.10;;;;;;4937464;28;85274;-52
2022/08/21 03:51:52;;;;;;;60.17;49.83;;;24.40;60.10;;;;;;4922248;28;88884;-53
2022/08/21 03:54:18;;;;;;;59.72;49.65;;;24.40;60.20;;;;;;4931145;28;86877;-53
2022/08/21 03:56:45;;;;;;;59.67;49.53;;;24.40;60.20;;;;;;4939600;28;85459;-53
2022/08/21 03:59:11;;;;;;;59.63;49.72;;;24.40;60.20;;;;;;4937421;28;85280;-52
2022/08/21 04:01:38;;;;;;;59.55;49.55;;;24.30;60.20;;;;;;4932896;28;86688;-51
2022/08/21 04:04:05;;;;;;;59.85;49.58;;;24.30;60.20;;;;;;4932381;28;89872;-53
2022/08/21 04:06:31;;;;;;;59.33;49.45;;;24.30;60.30;;;;;;4940606;28;85866;-52
2022/08/21 04:08:56;;;;;;;60.33;49.95;;;24.30;60.20;;;;;;4939516;28;85506;-51
2022/08/21 04:11:22;;;;;;;59.33;49.72;;;24.30;60.30;;;;;;4926837;28;85819;-50
2022/08/21 04:13:48;;;;;;;59.50;49.75;;;24.30;60.20;;;;;;4927173;28;85316;-54
2022/08/21 04:16:14;;;;;;;60.08;49.75;;;24.30;60.10;;;;;;4934659;28;91812;-55
2022/08/21 04:18:40;;;;;;;59.33;49.55;;;24.30;60.20;;;;;;4926660;28;90631;-55
2022/08/21 04:21:09;;;;;;;60.97;49.75;;;24.30;60.20;;;;;;4933575;28;85253;-53
2022/08/21 04:23:35;;;;;;;59.45;49.75;;;24.30;60.20;;;;;;4933399;28;85090;-51
2022/08/21 04:26:01;;;;;;;59.92;49.65;;;24.30;60.20;;;;;;4932408;28;85904;-53
2022/08/21 04:28:28;;;;;;;59.60;49.55;;;24.20;60.30;;;;;;4929408;28;88098;-51
2022/08/21 04:30:54;;;;;;;59.25;49.40;;;24.20;60.30;;;;;;4938948;28;85492;-51
2022/08/21 04:33:21;;;;;;;59.42;49.50;;;24.30;60.30;;;;;;4929442;28;85651;-52
2022/08/21 04:35:48;;;;;;;59.80;49.63;;;24.20;60.30;;;;;;4943014;28;85689;-53
2022/08/21 04:38:14;;;;;;;59.83;49.67;;;24.20;60.20;;;;;;4927217;28;92978;-54
2022/08/21 04:40:40;;;;;;;59.65;49.85;;;24.30;60.20;;;;;;4931500;28;87995;-52
2022/08/21 04:43:08;;;;;;;59.47;49.35;;;24.20;60.20;;;;;;4934648;28;89294;-54
2022/08/21 04:45:41;;;;;;;59.28;49.65;;;24.20;60.30;;;;;;4925902;28;88559;-50
2022/08/21 04:48:11;;;;;;;59.75;49.72;;;24.20;60.30;;;;;;4934803;28;89160;-54
2022/08/21 04:50:47;;;;;;;59.67;49.47;;;24.20;60.30;;;;;;4941293;28;85415;-53
2022/08/21 04:53:20;;;;;;;59.38;49.50;;;24.20;60.30;;;;;;4924374;28;85161;-52
2022/08/21 04:55:47;;;;;;;59.33;49.55;;;24.20;60.30;;;;;;4931253;28;94193;-52
2022/08/21 04:58:17;;;;;;;59.53;49.50;;;24.20;60.30;;;;;;4931006;28;86913;-53
2022/08/21 05:00:44;;;;;;;60.25;49.83;;;24.20;60.30;;;;;;4939542;28;85161;-54
2022/08/21 05:03:12;;;;;;;60.00;49.65;;;24.20;60.30;;;;;;4934634;28;85680;-49
2022/08/21 05:05:38;;;;;;;60.30;49.80;;;24.20;60.30;;;;;;4930723;28;85393;-55
2022/08/21 05:08:05;;;;;;;58.85;49.47;;;24.20;60.30;;;;;;4930257;28;88762;-55
2022/08/21 05:10:32;;;;;;;59.80;49.42;;;24.20;60.30;;;;;;4925702;28;86558;-52
2022/08/21 05:12:58;;;;;;;59.45;49.80;;;24.10;60.30;;;;;;4929854;28;85661;-54
2022/08/21 05:15:24;;;;;;;59.13;49.70;;;24.20;60.30;;;;;;4927809;28;85503;-53
2022/08/21 05:17:50;;;;;;;59.33;49.38;;;24.20;60.30;;;;;;4917617;28;87441;-50
2022/08/21 05:20:16;;;;;;;58.92;49.55;;;24.10;60.20;;;;;;4934212;28;85148;-54
2022/08/21 05:22:41;;;;;;;59.60;49.58;;;24.20;60.30;;;;;;4929906;28;87939;-51
2022/08/21 05:25:09;;;;;;;59.78;49.75;;;24.20;60.10;;;;;;4927076;28;86775;-55
2022/08/21 05:27:34;;;;;;;59.15;49.55;;;24.20;60.10;;;;;;4930015;28;88686;-52
2022/08/21 05:30:00;;;;;;;58.92;49.55;;;24.20;60.10;;;;;;4927897;28;87765;-53
2022/08/21 05:32:27;;;;;;;59.45;49.85;;;24.20;60.20;;;;;;4934853;28;85598;-51
2022/08/21 05:34:53;;;;;;;59.25;49.75;;;24.20;60.10;;;;;;4927736;28;85654;-50
2022/08/21 05:37:19;;;;;;;59.72;49.88;;;24.20;60.20;;;;;;4924351;28;86989;-49
2022/08/21 05:39:44;;;;;;;59.45;49.58;;;24.20;60.10;;;;;;4928147;28;86945;-50
2022/08/21 05:42:10;;;;;;;59.03;49.45;;;24.20;60.10;;;;;;4935348;28;85068;-48
2022/08/21 05:44:36;;;;;;;59.42;49.53;;;24.20;60.10;;;;;;4922417;28;85217;-53
2022/08/21 05:47:06;;;;;;;59.15;49.53;;;24.10;60.10;;;;;;4930638;28;86325;-54
2022/08/21 05:49:32;;;;;;;58.85;49.50;;;24.20;60.20;;;;;;4927695;28;85604;-51
2022/08/21 05:51:57;;;;;;;59.42;49.67;;;24.10;60.10;;;;;;4924919;28;86242;-51
2022/08/21 05:54:23;;;;;;;59.40;49.65;;;24.20;60.20;;;;;;4932164;28;86452;-48
2022/08/21 05:56:49;;;;;;;60.28;49.85;;;24.10;60.10;;;;;;4938744;28;85831;-50
2022/08/21 05:59:14;;;;;;;59.13;49.65;;;24.20;60.30;;;;;;4937854;28;86536;-50
2022/08/21 06:01:40;;;;;;;59.42;49.65;;;24.10;60.30;;;;;;4928898;28;86742;-55
2022/08/21 06:04:07;;;;;;;59.17;49.58;;;24.10;60.60;;;;;;4929560;28;89441;-51
2022/08/21 06:06:33;;;;;;;59.90;49.67;;;24.10;60.30;;;;;;4932633;28;85132;-54
2022/08/21 06:08:59;;;;;;;59.33;49.50;;;24.10;60.30;;;;;;4935989;28;86200;-50
2022/08/21 06:11:25;;;;;;;59.35;49.63;;;24.10;60.30;;;;;;4931756;28;86257;-53
2022/08/21 06:13:50;;;;;;;59.03;49.55;;;24.10;60.30;;;;;;4925559;28;86506;-52
2022/08/21 06:16:17;;;;;;;59.63;49.55;;;24.10;60.40;;;;;;4935054;28;87812;-57
2022/08/21 06:18:44;;;;;;;59.10;49.60;;;24.10;60.50;;;;;;4934390;28;85137;-52
2022/08/21 06:21:11;;;;;;;59.22;49.38;;;24.10;60.50;;;;;;4933307;28;85290;-53
2022/08/21 06:23:37;;;;;;;59.72;49.83;;;24.10;60.50;;;;;;4927620;28;87411;-52
2022/08/21 06:26:04;;;;;;;59.13;49.53;;;24.10;60.30;;;;;;4931422;28;87061;-53
2022/08/21 06:28:31;;;;;;;59.22;49.60;;;24.10;60.40;;;;;;4925480;28;87709;-52
2022/08/21 06:30:57;;;;;;;59.00;49.55;;;24.10;60.30;;;;;;4928142;28;85131;-54
2022/08/21 06:33:23;;;;;;;59.30;49.70;;;24.20;60.40;;;;;;4924930;28;86201;-50
2022/08/21 06:35:49;;;;;;;60.13;49.85;;;24.10;60.50;;;;;;4935886;28;88937;-52
2022/08/21 06:38:15;;;;;;;59.13;49.70;;;24.10;60.40;;;;;;4926659;28;90910;-49
2022/08/21 06:40:41;;;;;;;59.47;49.92;;;24.20;60.50;;;;;;4927392;28;86659;-50
2022/08/21 06:43:13;;;;;;;59.78;49.75;;;24.10;60.20;;;;;;4928996;28;92067;-53
2022/08/21 06:45:39;;;;;;;59.50;49.85;;;24.20;60.40;;;;;;4934143;28;90518;-54
2022/08/21 06:48:06;;;;;;;59.53;49.65;;;24.20;60.30;;;;;;4929879;28;93472;-49
2022/08/21 06:50:33;;;;;;;59.35;49.70;;;24.20;60.30;;;;;;4936248;28;89727;-53
2022/08/21 06:53:08;;;;;;;58.72;49.40;;;24.20;60.20;;;;;;4925969;28;91341;-51
2022/08/21 06:55:34;;;;;;;59.35;49.72;;;24.20;60.20;;;;;;4934267;28;91768;-51
2022/08/21 06:58:00;;;;;;;59.35;49.65;;;24.20;60.10;;;;;;4918242;28;90134;-48
2022/08/21 07:00:26;;;;;;;59.28;49.78;;;24.20;60.20;;;;;;4933699;28;90452;-50
2022/08/21 07:02:51;;;;;;;59.90;49.78;;;24.30;60.10;;;;;;4935411;28;90295;-54
2022/08/21 07:05:17;;;;;;;59.95;49.75;;;24.20;60.10;;;;;;4929580;28;90810;-51
2022/08/21 07:07:43;;;;;;;59.92;49.65;;;24.30;60.00;;;;;;4929252;28;90017;-49
2022/08/21 07:10:09;;;;;;;59.00;49.38;;;24.30;60.00;;;;;;4934490;28;89013;-50
2022/08/21 07:12:35;;;;;;;59.33;49.55;;;24.30;60.10;;;;;;4935163;28;92779;-51
2022/08/21 07:15:00;;;;;;;59.53;49.55;;;24.30;60.00;;;;;;4925052;28;93757;-52
2022/08/21 07:17:26;;;;;;;59.95;49.75;;;24.30;60.00;;;;;;4928019;28;91558;-52
2022/08/21 07:19:52;;;;;;;59.80;49.63;;;24.30;59.90;;;;;;4932924;28;89767;-51
2022/08/21 07:22:20;;;;;;;59.83;49.85;;;24.40;59.50;;;;;;4928435;28;90704;-53
2022/08/21 07:24:46;;;;;;;59.38;49.63;;;24.30;59.80;;;;;;4927736;28;94630;-51
2022/08/21 07:27:12;;;;;;;59.58;49.70;;;24.30;59.60;;;;;;4928246;28;90073;-52
2022/08/21 07:29:38;;;;;;;59.88;49.90;;;24.30;60.00;;;;;;4935414;28;89960;-50
2022/08/21 07:32:04;;;;;;;60.28;49.83;;;24.40;60.00;;;;;;4924674;28;90253;-52
2022/08/21 07:34:30;;;;;;;59.05;49.63;;;24.40;59.90;;;;;;4934048;28;90636;-49
2022/08/21 07:36:57;;;;;;;60.38;49.80;;;24.40;59.90;;;;;;4926777;28;89934;-54
2022/08/21 07:39:22;;;;;;;59.72;49.60;;;24.40;59.70;;;;;;4928344;28;89587;-53
2022/08/21 07:41:48;;;;;;;59.33;49.70;;;24.40;59.70;;;;;;4917855;28;94458;-54
2022/08/21 07:44:14;;;;;;;59.58;49.85;;;24.40;59.70;;;;;;4915982;28;90989;-54
2022/08/21 07:46:39;;;;;;;59.33;49.63;;;24.40;59.90;;;;;;4924229;28;89521;-50
2022/08/21 07:49:05;;;;;;;59.80;50.03;;;24.50;59.80;;;;;;4918635;28;91187;-54
2022/08/21 07:51:33;;;;;;;60.15;49.92;;;24.50;59.70;;;;;;4929459;28;94684;-53
2022/08/21 07:53:59;;;;;;;60.00;49.92;;;24.50;59.60;;;;;;4921795;28;90752;-53
2022/08/21 07:56:26;;;;;;;59.60;49.85;;;24.60;59.60;;;;;;4929780;28;90107;-52
2022/08/21 07:58:52;;;;;;;59.85;49.95;;;24.60;59.50;;;;;;4924041;28;90108;-53
2022/08/21 08:01:18;;;;;;;59.72;49.83;;;24.60;59.50;;;;;;4923096;28;96130;-54
2022/08/21 08:03:45;;;;;;;60.22;49.90;;;24.60;59.40;;;;;;4930295;28;93325;-50
2022/08/21 08:06:12;;;;;;;59.33;49.65;;;24.60;59.30;;;;;;4924514;28;91400;-50
2022/08/21 08:08:40;;;;;;;60.08;50.10;;;24.60;59.50;;;;;;4931233;28;90853;-54
2022/08/21 08:11:06;;;;;;;59.63;49.85;;;24.60;59.50;;;;;;4923106;28;93083;-54
2022/08/21 08:13:37;;;;;;;60.28;49.92;;;24.60;59.30;;;;;;4933498;28;90341;-50
2022/08/21 08:16:03;;;;;;;;;;;24.70;59.00;;;;;;4928929;28;90412;-50
2022/08/21 08:18:28;;;;;;;59.45;49.72;;;24.70;59.30;;;;;;4927173;28;90828;-53
2022/08/21 08:20:54;;;;;;;60.17;50.20;;;24.70;59.30;;;;;;4930723;28;92132;-53
2022/08/21 08:23:19;;;;;;;60.22;50.10;;;24.70;59.10;;;;;;4935236;28;89653;-52
2022/08/21 08:25:45;;;;;;;59.95;49.83;;;24.70;59.00;;;;;;4922426;28;92120;-52
2022/08/21 08:28:11;;;;;;;62.83;50.08;;;24.70;58.80;;;;;;4927747;28;89888;-49
2022/08/21 08:30:36;;;;;;;62.55;49.85;;;24.70;59.00;;;;;;4924180;28;92246;-52
2022/08/21 08:33:02;;;;;;;59.83;49.78;;;24.70;59.60;;;;;;4929581;28;91097;-52
2022/08/21 08:35:28;;;;;;;59.90;49.97;;;24.80;58.90;;;;;;4928693;28;92495;-49
2022/08/21 08:37:54;;;;;;;60.60;50.15;;;24.80;58.90;;;;;;4923242;28;90333;-54
2022/08/21 08:40:55;;;;;;;60.30;49.92;;;24.90;58.80;;;;;;4926172;28;91105;-54
2022/08/21 08:43:21;;;;;;;60.58;50.10;;;24.90;58.70;;;;;;4917584;28;91322;-50
2022/08/21 08:45:50;;;;;;;60.67;49.80;;;24.90;58.60;;;;;;4924402;28;93279;-51
2022/08/21 08:48:40;;;;;;;61.15;50.15;;;25.00;58.60;;;;;;4930054;28;88749;-53
2022/08/21 08:51:16;;;;;;;60.83;49.85;;;25.00;58.30;;;;;;4925248;28;94489;-49
2022/08/21 08:54:02;;;;;;;59.95;50.00;;;24.90;58.70;;;;;;4917676;28;95091;-50
2022/08/21 08:56:32;;;;;;;60.03;49.95;;;24.90;58.70;;;;;;4920767;28;90924;-49
2022/08/21 08:59:08;;;;;;;60.42;49.97;;;25.00;58.50;;;;;;4923793;28;89739;-48
2022/08/21 09:01:34;;;;;;;60.92;50.03;;;25.00;58.40;;;;;;4923637;28;90864;-51
2022/08/21 09:04:00;;;;;;;60.55;50.17;;;25.10;58.20;;;;;;4935165;28;91038;-50
2022/08/21 09:06:39;;;;;;;60.40;49.85;;;25.10;58.30;;;;;;4918915;28;92515;-51
2022/08/21 09:09:32;;;;;;;60.72;50.17;;;25.20;58.10;;;;;;4928740;28;90595;-50
2022/08/21 09:12:14;;;;;;;61.95;50.17;;;25.20;57.90;;;;;;4923859;28;93329;-51
2022/08/21 09:14:53;;;;;;;60.83;50.17;;;25.30;57.90;;;;;;4931753;28;90021;-53
2022/08/21 09:18:02;;;;;;;60.72;50.15;;;25.30;57.80;;;;;;4919408;28;89923;-50
2022/08/21 09:20:38;;;;;;;60.70;50.10;;;25.30;57.70;;;;;;4925661;28;92117;-50
2022/08/21 09:23:32;;;;;;;60.97;50.33;;;25.40;57.80;;;;;;4917792;28;91289;-53
2022/08/21 09:26:17;;;;;;;60.90;50.25;;;25.40;57.70;;;;;;4925879;28;92262;-51
2022/08/21 09:28:44;;;;;;;60.67;50.28;;;25.40;57.70;;;;;;4928570;28;95442;-53
2022/08/21 09:31:42;;;;;;;61.10;50.30;;;25.40;57.60;;;;;;4927073;28;90933;-53
2022/08/21 09:34:13;;;;;;;62.03;50.17;;;25.40;57.60;;;;;;4938326;28;90202;-54
2022/08/21 09:36:46;;;;;;;61.17;50.40;;;25.40;57.70;;;;;;4922807;28;89901;-51
2022/08/21 09:39:24;;;;;;;60.60;50.13;;;25.50;57.80;;;;;;4922060;28;90457;-51
2022/08/21 09:41:59;;;;;;;62.45;50.33;;;25.40;57.70;;;;;;4923864;28;96200;-54
2022/08/21 09:44:32;;;;;;;60.30;50.20;;;25.50;57.60;;;;;;4928222;28;89783;-50
2022/08/21 09:46:58;;;;;;;62.00;50.45;;;25.40;57.70;;;;;;4917298;28;90049;-53
2022/08/21 09:49:32;;;;;;;61.63;50.25;;;25.40;57.70;;;;;;4915082;28;91286;-52
2022/08/21 09:51:59;;;;;;;61.80;50.38;;;25.40;57.60;;;;;;4920448;28;90704;-51
2022/08/21 09:54:38;;;;;;;63.00;50.67;;;25.40;57.70;;;;;;4915749;28;90884;-52
2022/08/21 09:57:38;;;;;;;62.55;50.47;;;25.50;57.90;;;;;;4913190;28;90918;-50
2022/08/21 10:00:18;;;;;;;62.13;50.92;;;25.50;57.80;;;;;;4915163;28;91334;-47
2022/08/21 10:02:44;;;;;;;63.50;50.63;;;25.50;57.80;;;;;;4919880;28;90126;-52
2022/08/21 10:05:22;;;;;;;62.17;51.00;;;25.50;57.80;;;;;;4909885;28;89840;-51
2022/08/21 10:07:49;;;;;;;62.10;50.78;;;25.60;57.80;;;;;;4919319;28;92001;-52
2022/08/21 10:10:21;;;;;;;62.78;50.90;;;25.60;57.80;;;;;;4912834;28;90308;-49
2022/08/21 10:12:53;;;;;;;63.70;50.78;;;25.60;57.80;;;;;;4923678;28;91082;-53
2022/08/21 10:15:28;;;;;;;62.83;50.72;;;25.60;57.80;;;;;;4915654;28;91292;-52
2022/08/21 10:18:00;;;;;;;62.72;50.83;;;25.60;57.90;;;;;;4931864;28;90629;-53
2022/08/21 10:20:39;;;;;;;67.43;51.05;;;25.60;57.90;;;;;;4919456;28;90071;-47
2022/08/21 10:23:24;;;;;;;65.68;51.00;;;25.60;57.90;;;;;;4915090;28;90100;-51
2022/08/21 10:26:05;;;;;;;67.38;50.85;;;25.60;57.90;;;;;;4942574;28;91248;-52
2022/08/21 10:28:55;;;;;;;61.20;50.63;;;25.60;57.80;;;;;;4917451;28;91423;-52
2022/08/21 10:31:30;;;;;;;62.05;50.65;;;25.60;57.80;;;;;;4907458;28;90329;-52
2022/08/21 10:34:02;;;;;;;63.55;51.08;;;25.60;57.80;;;;;;4911887;28;89836;-52
2022/08/21 10:36:36;;;;;;;62.55;50.90;;;25.60;57.80;;;;;;4915053;28;95177;-50
2022/08/21 10:39:17;;;;;;;63.95;51.33;;;25.70;57.80;;;;;;4902723;28;91814;-53
2022/08/21 10:42:01;;;;;;;64.00;51.72;;;25.60;57.80;;;;;;4922030;28;91473;-51
2022/08/21 10:44:48;;;;;;;64.85;51.00;;;25.70;57.80;;;;;;4913292;28;92115;-49
2022/08/21 10:47:41;;;;;;;63.92;50.92;;;25.70;57.70;;;;;;4935738;28;91373;-50
2022/08/21 10:50:29;;;;;;;63.67;51.10;;;25.70;57.70;;;;;;4930172;28;89841;-52
2022/08/21 10:53:26;;;;;;;63.75;51.05;;;25.70;57.70;;;;;;4935558;28;90100;-50
2022/08/21 10:56:02;;;;;;;62.55;50.83;;;25.70;57.70;;;;;;4940475;28;91245;-51
2022/08/21 10:58:30;;;;;;;65.38;51.25;;;25.70;57.70;;;;;;4923325;28;91752;-51
2022/08/21 11:01:08;;;;;;;63.40;51.35;;;25.70;57.70;;;;;;4938246;28;89355;-52
2022/08/21 11:03:59;;;;;;;63.45;51.17;;;25.70;57.60;;;;;;4922758;28;91054;-51
2022/08/21 11:06:30;;;;;;;63.15;51.22;;;25.70;57.60;;;;;;4923790;28;92473;-51
2022/08/21 11:09:10;;;;;;;62.60;51.20;;;25.80;57.70;;;;;;4930771;28;92728;-49
2022/08/21 11:11:42;;;;;;;63.97;51.13;;;25.80;57.70;;;;;;4928392;28;90224;-52
2022/08/21 11:14:29;;;;;;;63.00;51.03;;;25.80;57.70;;;;;;4932673;28;92179;-49
2022/08/21 11:17:07;;;;;;;64.15;51.00;;;25.80;57.70;;;;;;4927409;28;90560;-53
2022/08/21 11:19:42;;;;;;;62.65;50.83;;;25.80;57.70;;;;;;4933841;28;90714;-53
2022/08/21 11:22:15;;;;;;;62.28;51.05;;;25.80;57.80;;;;;;4927125;28;90812;-52
2022/08/21 11:25:06;;;;;;;62.58;51.17;;;25.80;57.70;;;;;;4933980;28;89949;-53
2022/08/21 11:28:00;;;;;;;62.72;51.35;;;25.80;57.80;;;;;;4928727;28;89067;-52
2022/08/21 11:30:39;;;;;;;63.22;51.25;;;25.80;57.80;;;;;;4929910;28;89929;-53
2022/08/21 11:33:23;;;;;;;63.20;51.25;;;25.80;57.80;;;;;;4935236;28;90981;-52
2022/08/21 11:35:53;;;;;;;63.13;51.25;;;25.80;57.80;;;;;;4939498;28;91381;-51
2022/08/21 11:38:19;;;;;;;63.10;51.35;;;25.80;57.90;;;;;;4940801;28;93705;-51
2022/08/21 11:40:58;;;;;;;63.25;51.17;;;25.80;57.80;;;;;;4937784;28;89436;-52
2022/08/21 11:43:41;;;;;;;64.00;51.33;;;25.90;57.80;;;;;;4937208;28;92435;-52
2022/08/21 11:46:20;;;;;;;64.53;51.22;;;25.90;57.90;;;;;;4929412;28;90783;-47
2022/08/21 11:49:12;;;;;;;62.42;51.03;;;25.90;57.80;;;;;;4912799;28;91680;-53
2022/08/21 11:52:09;;;;;;;65.10;51.08;;;25.90;57.80;;;;;;4925040;28;95579;-49
2022/08/21 11:54:39;;;;;;;64.18;51.25;;;25.90;57.80;;;;;;4929098;28;90341;-52
2022/08/21 11:57:12;;;;;;;64.23;51.10;;;25.90;57.80;;;;;;4929001;28;89653;-49
2022/08/21 11:59:45;;;;;;;62.88;51.47;;;25.90;57.80;;;;;;4928537;28;90961;-52
2022/08/21 12:02:17;;;;;;;63.20;51.28;;;25.90;57.80;;;;;;4917303;28;93076;-51
2022/08/21 12:04:47;;;;;;;63.55;51.35;;;25.90;57.80;;;;;;4926697;28;91002;-53
2022/08/21 12:07:16;;;;;;;62.70;51.25;;;25.90;57.80;;;;;;4923147;28;90699;-51
2022/08/21 12:09:54;;;;;;;63.83;51.65;;;26.00;57.90;;;;;;4930886;28;90526;-53
2022/08/21 12:12:29;;;;;;;63.28;51.30;;;26.00;57.80;;;;;;4928093;28;96123;-51
2022/08/21 12:15:28;;;;;;;63.03;51.47;;;26.00;57.80;;;;;;4922848;28;90419;-54
2022/08/21 12:18:17;;;;;;;62.97;51.35;;;26.00;57.80;;;;;;4926665;28;92425;-53
2022/08/21 12:21:02;;;;;;;64.43;51.53;;;26.00;57.70;;;;;;4924199;28;90074;-53
2022/08/21 12:23:42;;;;;;;63.65;51.15;;;26.00;57.70;;;;;;4920717;28;91337;-49
2022/08/21 12:26:31;;;;;;;63.40;51.20;;;26.00;58.30;;;;;;4928189;28;90717;-50
2022/08/21 12:29:35;;;;;;;62.85;51.38;;;26.00;57.60;;;;;;4931236;28;90743;-50
2022/08/21 12:32:28;;;;;;;62.70;51.40;;;26.00;57.60;;;;;;4943642;28;89722;-50
2022/08/21 12:35:11;;;;;;;63.33;51.33;;;26.10;57.60;;;;;;4927043;28;90422;-50
2022/08/21 12:37:47;;;;;;;64.05;51.22;;;26.00;58.10;;;;;;4927040;28;92275;-52
2022/08/21 12:40:39;;;;;;;63.13;51.40;;;26.00;57.50;;;;;;4928510;28;89722;-51
2022/08/21 12:43:11;;;;;;;63.58;51.65;;;26.10;57.60;;;;;;4929431;28;92352;-52
2022/08/21 12:45:46;;;;;;;63.28;51.42;;;26.10;57.60;;;;;;4930747;28;90462;-48